Time;durP1;ratioP1;P1;durP2;ratioP2;P2;SDS_P1;SDS_P2;PMS_P1;PMS_P2;Temp;Humidity;BMP_temperature;BMP_pressure;BME280_temperature;BME280_humidity;BME280_pressure;Samples;Min_cycle;Max_cycle;Signal;HPM_P1;HPM_P2
2021/05/07 00:00:49;;;;;;;12.38;4.20;;;8.50;88.60;;;;;;4993860;28;20041;-90
2021/05/07 00:04:03;;;;;;;11.57;3.35;;;8.50;91.70;;;;;;4994373;28;20062;-93
2021/05/07 00:06:58;;;;;;;14.70;5.05;;;8.40;93.10;;;;;;4968064;28;20524;-91
2021/05/07 00:09:48;;;;;;;11.50;4.30;;;8.40;94.60;;;;;;4988600;28;20069;-91
2021/05/07 00:12:24;;;;;;;10.57;4.05;;;8.10;95.20;;;;;;4935044;28;20054;-90
2021/05/07 00:14:59;;;;;;;8.20;3.08;;;8.30;95.80;;;;;;5003782;28;20059;-91
2021/05/07 00:17:53;;;;;;;5.63;2.90;;;8.30;97.10;;;;;;4992198;28;20061;-91
2021/05/07 00:20:44;;;;;;;12.80;2.95;;;8.30;98.30;;;;;;4963048;28;20062;-90
2021/05/07 00:23:36;;;;;;;10.15;3.17;;;8.20;99.10;;;;;;4946864;28;20053;-91
2021/05/07 00:26:21;;;;;;;11.45;3.30;;;8.10;99.90;;;;;;4961688;28;20045;-91
2021/05/07 00:29:13;;;;;;;10.80;2.45;;;8.10;99.90;;;;;;4961712;28;20057;-91
2021/05/07 00:32:06;;;;;;;13.98;3.50;;;8.10;99.90;;;;;;4963248;28;20066;-90
2021/05/07 00:38:19;;;;;;;4.10;2.42;;;8.20;99.90;;;;;;5004140;28;20422;-90
2021/05/07 00:41:06;;;;;;;13.93;3.85;;;7.00;99.90;;;;;;4996125;28;20058;-90
2021/05/07 00:43:47;;;;;;;4.85;3.10;;;7.90;99.90;;;;;;4970535;28;20073;-90
2021/05/07 00:47:06;;;;;;;11.50;5.63;;;7.80;99.90;;;;;;4978758;28;20610;-90
2021/05/07 00:49:41;;;;;;;5.18;2.75;;;7.70;99.90;;;;;;4959728;28;20546;-91
2021/05/07 00:52:18;;;;;;;7.93;2.60;;;7.70;99.90;;;;;;4972275;28;20042;-91
2021/05/07 00:55:06;;;;;;;9.00;3.25;;;7.70;99.90;;;;;;4949519;28;20478;-91
2021/05/07 00:57:39;;;;;;;10.77;4.75;;;7.60;99.90;;;;;;4951813;28;20133;-91
2021/05/07 01:00:10;;;;;;;11.77;3.47;;;7.40;99.90;;;;;;4933226;29;20074;-91
2021/05/07 01:02:47;;;;;;;11.75;3.78;;;7.60;99.90;;;;;;4971819;28;20342;-90
2021/05/07 01:05:21;;;;;;;6.03;3.13;;;7.10;99.90;;;;;;5010194;28;20051;-91
2021/05/07 01:07:58;;;;;;;5.40;2.33;;;7.50;99.90;;;;;;4956043;28;20055;-91
2021/05/07 01:10:38;;;;;;;27.88;3.03;;;6.50;99.90;;;;;;4987506;23;20415;-91
2021/05/07 01:13:28;;;;;;;10.40;4.63;;;7.50;99.90;;;;;;4991917;28;20499;-91
2021/05/07 01:16:42;;;;;;;8.73;2.75;;;7.50;99.90;;;;;;4996649;28;20051;-89
2021/05/07 01:19:45;;;;;;;6.93;2.95;;;7.50;99.90;;;;;;5027358;28;20062;-90
2021/05/07 01:22:22;;;;;;;7.80;2.38;;;7.50;99.90;;;;;;4997045;28;20058;-90
2021/05/07 01:24:59;;;;;;;13.65;2.70;;;7.50;99.90;;;;;;4997588;28;20045;-91
2021/05/07 01:27:52;;;;;;;7.13;3.20;;;7.50;99.90;;;;;;4998885;28;20042;-90
2021/05/07 01:30:32;;;;;;;7.55;3.58;;;7.60;99.90;;;;;;5029246;28;20049;-90
2021/05/07 01:33:25;;;;;;;4.63;1.95;;;7.60;99.90;;;;;;5013873;28;20478;-91
2021/05/07 01:36:50;;;;;;;10.27;3.95;;;7.30;99.90;;;;;;5052546;23;20062;-90
2021/05/07 01:40:37;;;;;;;5.28;2.97;;;7.30;99.90;;;;;;5028307;28;20037;-90
2021/05/07 01:43:31;;;;;;;6.68;3.20;;;7.30;99.90;;;;;;5027068;28;20030;-92
2021/05/07 01:46:11;;;;;;;9.65;3.65;;;7.30;99.90;;;;;;5019565;28;20064;-91
2021/05/07 01:48:44;;;;;;;11.93;3.35;;;7.30;99.90;;;;;;5027074;28;20080;-91
2021/05/07 01:51:20;;;;;;;9.20;2.75;;;7.30;99.90;;;;;;5039358;28;20041;-91
2021/05/07 01:53:50;;;;;;;7.78;2.47;;;8.10;99.90;;;;;;5039228;28;20121;-91
2021/05/07 01:56:24;;;;;;;7.80;3.33;;;7.30;99.90;;;;;;5020019;28;20060;-90
2021/05/07 01:58:59;;;;;;;8.60;3.55;;;7.30;99.90;;;;;;5015597;28;20053;-90
2021/05/07 02:01:28;;;;;;;11.18;3.05;;;7.30;99.90;;;;;;5011477;28;20493;-91
2021/05/07 02:04:16;;;;;;;7.20;3.03;;;7.40;99.90;;;;;;4998150;28;20050;-90
2021/05/07 02:06:49;;;;;;;10.00;3.05;;;7.30;99.90;;;;;;5005043;28;20080;-90
2021/05/07 02:09:34;;;;;;;6.97;3.78;;;7.30;99.90;;;;;;5032270;28;20048;-91
2021/05/07 02:12:10;;;;;;;9.85;3.35;;;8.70;99.90;;;;;;5005859;28;20058;-91
2021/05/07 02:14:39;;;;;;;10.30;2.80;;;7.20;99.90;;;;;;5002377;28;20046;-91
2021/05/07 02:17:23;;;;;;;6.05;2.95;;;7.20;99.90;;;;;;5001714;28;20047;-91
2021/05/07 02:19:53;;;;;;;16.67;3.53;;;7.20;99.90;;;;;;4982120;28;20060;-92
2021/05/07 02:26:39;;;;;;;15.15;3.88;;;7.00;99.90;;;;;;5031310;28;20030;-90
2021/05/07 02:29:11;;;;;;;7.40;3.53;;;6.90;99.90;;;;;;4992069;28;20054;-92
2021/05/07 02:31:45;;;;;;;7.45;3.00;;;6.90;99.90;;;;;;4998230;28;20052;-91
2021/05/07 02:34:16;;;;;;;7.63;3.03;;;6.80;99.90;;;;;;5018271;28;20061;-92
2021/05/07 02:36:56;;;;;;;13.27;4.35;;;6.80;99.90;;;;;;4987154;28;20031;-91
2021/05/07 02:39:27;;;;;;;;;;;7.10;99.90;;;;;;5012159;28;20050;-90
2021/05/07 02:42:13;;;;;;;11.30;3.17;;;6.60;99.90;;;;;;4971607;28;19922;-91
2021/05/07 02:44:47;;;;;;;15.82;4.30;;;6.60;99.90;;;;;;4990990;28;20050;-91
2021/05/07 02:47:16;;;;;;;9.00;3.40;;;6.60;99.90;;;;;;4987924;28;20057;-90
2021/05/07 02:49:49;;;;;;;8.60;3.47;;;6.40;99.90;;;;;;4974025;28;20050;-89
2021/05/07 02:52:17;;;;;;;18.15;4.10;;;7.70;99.90;;;;;;5001833;28;20054;-90
2021/05/07 02:54:58;;;;;;;10.35;3.58;;;6.50;99.90;;;;;;4991399;28;20058;-90
2021/05/07 02:57:27;;;;;;;12.70;3.35;;;6.40;99.90;;;;;;4989676;28;20060;-90
2021/05/07 02:59:58;;;;;;;15.93;4.80;;;6.40;99.90;;;;;;4987226;28;20500;-91
2021/05/07 03:02:31;;;;;;;12.98;4.20;;;6.40;99.90;;;;;;4986504;28;20073;-90
2021/05/07 03:05:09;;;;;;;11.23;3.13;;;6.40;99.90;;;;;;5005704;28;20054;-91
2021/05/07 03:07:38;;;;;;;15.50;5.28;;;6.30;99.90;;;;;;4994223;28;20042;-91
2021/05/07 03:10:31;;;;;;;10.45;4.45;;;6.30;99.90;;;;;;4988796;28;20073;-90
2021/05/07 03:13:24;;;;;;;16.33;4.47;;;6.40;99.90;;;;;;5006286;28;20055;-92
2021/05/07 03:16:10;;;;;;;12.60;4.88;;;6.40;99.90;;;;;;4972991;28;20065;-91
2021/05/07 03:18:40;;;;;;;25.10;5.03;;;6.40;99.90;;;;;;4990455;28;20038;-90
2021/05/07 03:21:23;;;;;;;8.35;3.50;;;6.50;99.90;;;;;;4989935;28;20054;-91
2021/05/07 03:24:09;;;;;;;9.02;3.60;;;6.50;99.90;;;;;;4988300;28;20087;-92
2021/05/07 03:26:36;;;;;;;21.77;4.00;;;6.60;99.90;;;;;;4996810;28;20051;-92
2021/05/07 03:29:07;;;;;;;12.73;4.18;;;7.70;99.90;;;;;;4969858;28;20042;-91
2021/05/07 03:31:39;;;;;;;10.63;4.07;;;6.70;99.90;;;;;;4644048;28;9999704;-92
2021/05/07 03:34:08;;;;;;;11.23;3.67;;;6.70;99.90;;;;;;4970494;28;20307;-91
2021/05/07 03:36:51;;;;;;;8.65;3.05;;;6.70;99.90;;;;;;4990188;28;20062;-91
2021/05/07 03:39:34;;;;;;;7.30;3.00;;;7.10;99.90;;;;;;4988372;28;20038;-90
2021/05/07 03:42:04;;;;;;;7.95;4.38;;;6.80;99.90;;;;;;5001940;28;20549;-92
2021/05/07 03:44:34;;;;;;;8.02;2.75;;;6.80;99.90;;;;;;5014306;28;20517;-91
2021/05/07 03:47:04;;;;;;;13.13;3.78;;;6.90;99.90;;;;;;4999295;28;20046;-91
2021/05/07 03:49:35;;;;;;;9.75;4.10;;;6.80;99.90;;;;;;5004160;28;20077;-92
2021/05/07 03:52:16;;;;;;;13.82;3.20;;;7.40;99.90;;;;;;4991949;28;20050;-90
2021/05/07 03:55:06;;;;;;;4.95;2.92;;;6.80;99.90;;;;;;4995442;28;20065;-93
2021/05/07 03:57:58;;;;;;;15.60;3.58;;;6.70;99.90;;;;;;5019197;28;20056;-91
2021/05/07 04:00:52;;;;;;;11.90;3.67;;;6.70;99.90;;;;;;4988899;28;20043;-91
2021/05/07 04:03:25;;;;;;;12.73;4.93;;;6.60;99.90;;;;;;4950301;28;20407;-92
2021/05/07 04:06:02;;;;;;;6.82;3.67;;;6.50;99.90;;;;;;4989175;28;20061;-91
2021/05/07 04:09:06;;;;;;;;;;;6.50;99.90;;;;;;4997383;28;20669;-90
2021/05/07 04:11:56;;;;;;;8.65;3.83;;;6.40;99.90;;;;;;5018603;28;19928;-91
2021/05/07 04:14:51;;;;;;;11.45;4.25;;;6.30;99.90;;;;;;5006652;28;20042;-91
2021/05/07 04:17:26;;;;;;;9.02;3.25;;;6.30;99.90;;;;;;4985900;28;20058;-90
2021/05/07 04:20:04;;;;;;;11.45;3.58;;;6.10;99.90;;;;;;4974288;28;20051;-91
2021/05/07 04:23:24;;;;;;;12.40;3.85;;;6.20;99.90;;;;;;4991741;28;20062;-91
2021/05/07 04:26:26;;;;;;;10.02;3.25;;;6.10;99.90;;;;;;5002844;28;20054;-90
2021/05/07 04:29:08;;;;;;;;;;;6.10;99.90;;;;;;4974092;28;20061;-90
2021/05/07 04:33:12;;;;;;;8.30;4.32;;;6.00;99.90;;;;;;4989879;28;19922;-92
2021/05/07 04:39:49;;;;;;;10.57;3.28;;;5.90;99.90;;;;;;5008016;28;20054;-90
2021/05/07 04:43:05;;;;;;;8.18;4.45;;;5.90;99.90;;;;;;5010938;28;20060;-91
2021/05/07 04:46:47;;;;;;;8.45;3.75;;;5.80;99.90;;;;;;5013575;28;20050;-90
2021/05/07 04:49:52;;;;;;;15.80;4.13;;;5.80;99.90;;;;;;4998859;28;20059;-91
2021/05/07 04:52:58;;;;;;;11.95;4.35;;;5.80;99.90;;;;;;4994236;28;20038;-91
2021/05/07 04:56:07;;;;;;;14.80;4.25;;;5.70;99.90;;;;;;5000009;28;20057;-90
2021/05/07 04:59:17;;;;;;;15.00;3.47;;;5.80;99.90;;;;;;5013561;28;20064;-90
2021/05/07 05:02:54;;;;;;;13.27;3.90;;;7.50;99.90;;;;;;4979833;28;20076;-90
2021/05/07 05:06:02;;;;;;;8.25;4.05;;;5.90;99.90;;;;;;5009776;28;20050;-91
2021/05/07 05:09:46;;;;;;;14.43;5.70;;;5.80;99.90;;;;;;4987524;28;20046;-91
2021/05/07 05:12:29;;;;;;;17.77;4.00;;;5.80;99.90;;;;;;5019942;28;20041;-90
2021/05/07 05:15:20;;;;;;;11.68;4.97;;;5.80;99.90;;;;;;5028434;28;20050;-92
2021/05/07 05:18:48;;;;;;;7.70;4.43;;;5.90;99.90;;;;;;5010546;28;20192;-91
2021/05/07 05:22:00;;;;;;;13.40;3.50;;;6.30;99.90;;;;;;5001921;28;20068;-90
2021/05/07 05:25:07;;;;;;;8.35;3.78;;;5.90;99.90;;;;;;5037554;28;20041;-91
2021/05/07 05:28:06;;;;;;;13.43;3.70;;;6.00;99.90;;;;;;5025710;28;20048;-91
2021/05/07 05:30:57;;;;;;;15.15;4.65;;;6.00;99.90;;;;;;5034974;28;20046;-91
2021/05/07 05:33:56;;;;;;;14.96;4.58;;;6.00;99.90;;;;;;4847621;28;10001347;-92
2021/05/07 05:36:51;;;;;;;8.55;4.80;;;6.10;99.90;;;;;;5056390;28;20265;-91
2021/05/07 05:39:41;;;;;;;10.63;3.10;;;6.80;99.90;;;;;;5005508;28;20046;-92
2021/05/07 05:42:32;;;;;;;27.65;4.22;;;6.10;99.90;;;;;;5026603;28;20048;-91
2021/05/07 05:45:15;;;;;;;12.95;3.85;;;6.10;99.90;;;;;;5027864;28;20444;-90
2021/05/07 05:48:18;;;;;;;10.77;3.60;;;6.20;99.90;;;;;;5001665;28;20684;-92
2021/05/07 05:51:07;;;;;;;12.00;3.97;;;6.20;99.90;;;;;;5014583;28;20058;-91
2021/05/07 05:54:34;;;;;;;10.15;4.15;;;6.30;99.90;;;;;;4953980;28;20050;-91
2021/05/07 05:57:55;;;;;;;18.50;5.55;;;6.40;99.90;;;;;;5028411;28;20056;-90
2021/05/07 06:00:40;;;;;;;11.63;4.18;;;6.40;99.90;;;;;;5011257;28;20062;-91
2021/05/07 06:03:39;;;;;;;15.50;5.45;;;6.50;99.90;;;;;;5014147;28;20057;-90
2021/05/07 06:06:27;;;;;;;10.75;4.75;;;6.50;99.90;;;;;;5005622;28;20060;-90
2021/05/07 06:09:23;;;;;;;11.98;3.55;;;6.60;99.90;;;;;;5006411;28;20579;-92
2021/05/07 06:12:15;;;;;;;17.85;4.90;;;6.70;99.90;;;;;;5017027;28;20054;-93
2021/05/07 06:15:37;;;;;;;9.75;4.82;;;6.70;99.90;;;;;;5009438;28;20072;-94
2021/05/07 06:19:15;;;;;;;12.77;4.10;;;6.50;99.90;;;;;;4994376;28;20074;-91
2021/05/07 06:22:13;;;;;;;9.55;3.85;;;6.90;99.90;;;;;;5015576;28;20054;-90
2021/05/07 06:26:02;;;;;;;23.33;5.82;;;7.10;99.90;;;;;;5009613;28;20815;-91
2021/05/07 06:29:14;;;;;;;10.27;3.45;;;7.10;99.90;;;;;;5014260;28;20068;-91
2021/05/07 06:31:56;;;;;;;20.05;6.22;;;7.30;99.90;;;;;;5023109;28;20052;-90
2021/05/07 06:34:47;;;;;;;10.93;3.97;;;7.40;99.90;;;;;;4987836;28;20092;-90
2021/05/07 06:37:20;;;;;;;6.65;4.35;;;8.40;99.90;;;;;;4991666;28;20049;-90
2021/05/07 06:40:21;;;;;;;12.00;4.30;;;7.60;99.90;;;;;;5007223;28;20050;-90
2021/05/07 06:43:14;;;;;;;15.57;3.88;;;7.80;99.90;;;;;;4979855;28;20060;-90
2021/05/07 06:45:45;;;;;;;14.68;4.50;;;8.00;99.90;;;;;;5029065;28;20058;-90
2021/05/07 06:48:30;;;;;;;9.63;4.55;;;8.00;99.90;;;;;;5016834;28;20045;-91
2021/05/07 06:51:07;;;;;;;15.75;4.57;;;8.10;99.90;;;;;;5007748;28;20481;-92
2021/05/07 06:53:42;;;;;;;12.82;6.50;;;8.10;99.90;;;;;;5010297;28;20049;-92
2021/05/07 06:56:15;;;;;;;10.80;3.78;;;8.10;99.90;;;;;;5010077;28;20224;-91
2021/05/07 06:58:59;;;;;;;12.43;4.18;;;8.10;99.90;;;;;;5009929;28;20065;-92
2021/05/07 07:02:00;;;;;;;19.85;4.78;;;8.20;99.90;;;;;;5005347;28;20740;-90
2021/05/07 07:04:33;;;;;;;8.57;3.55;;;8.20;99.90;;;;;;5010869;28;20061;-91
2021/05/07 07:07:08;;;;;;;12.38;4.15;;;8.90;99.90;;;;;;4992322;28;20412;-90
2021/05/07 07:09:46;;;;;;;9.32;4.25;;;8.30;99.90;;;;;;5022087;28;20046;-91
2021/05/07 07:12:17;;;;;;;14.43;5.15;;;8.30;99.90;;;;;;5007380;28;20049;-87
2021/05/07 07:15:01;;;;;;;17.67;4.25;;;9.30;99.90;;;;;;4997125;28;20147;-91
2021/05/07 07:17:30;;;;;;;20.65;6.00;;;8.40;99.90;;;;;;4999796;28;20065;-90
2021/05/07 07:20:00;;;;;;;10.45;4.88;;;8.40;99.90;;;;;;5016122;28;20432;-90
2021/05/07 07:22:37;;;;;;;13.43;5.13;;;8.50;99.90;;;;;;4994818;28;20050;-91
2021/05/07 07:25:14;;;;;;;;;;;8.50;99.90;;;;;;4976106;28;20042;-92
2021/05/07 07:31:45;;;;;;;20.30;6.82;;;8.50;99.90;;;;;;4996002;23;20043;-92
2021/05/07 07:35:02;;;;;;;6.50;3.42;;;8.50;99.90;;;;;;4945666;29;20055;-93
2021/05/07 07:37:57;;;;;;;26.90;4.38;;;8.70;99.90;;;;;;4957049;29;20051;-91
2021/05/07 07:41:11;;;;;;;13.38;3.88;;;8.80;99.90;;;;;;4958086;29;20053;-92
2021/05/07 07:43:56;;;;;;;18.67;5.70;;;8.80;99.90;;;;;;4915663;29;20051;-91
2021/05/07 07:47:04;;;;;;;19.00;4.85;;;8.90;99.90;;;;;;4949300;29;20055;-92
2021/05/07 07:49:58;;;;;;;18.52;4.65;;;9.80;99.90;;;;;;4937637;29;20043;-91
2021/05/07 07:52:58;;;;;;;7.85;3.63;;;9.10;99.90;;;;;;4941215;29;20067;-92
2021/05/07 07:55:43;;;;;;;13.38;3.85;;;9.10;99.90;;;;;;4926720;29;20038;-91
2021/05/07 07:58:23;;;;;;;12.40;4.40;;;9.20;99.90;;;;;;4944291;29;20055;-90
2021/05/07 08:01:45;;;;;;;11.00;4.03;;;8.10;99.90;;;;;;4933441;29;20073;-90
2021/05/07 08:04:17;;;;;;;16.55;5.20;;;9.40;99.90;;;;;;4969568;28;20047;-92
2021/05/07 08:07:36;;;;;;;7.53;3.10;;;9.40;99.90;;;;;;4938830;29;20051;-92
2021/05/07 08:10:16;;;;;;;8.70;3.67;;;9.50;99.90;;;;;;4928020;29;20046;-91
2021/05/07 08:12:47;;;;;;;12.85;3.40;;;9.70;99.90;;;;;;4924734;29;20054;-92
2021/05/07 08:15:15;;;;;;;10.73;3.53;;;9.70;99.90;;;;;;4888741;29;20514;-90
2021/05/07 08:17:48;;;;;;;10.68;2.75;;;9.70;99.90;;;;;;4919975;29;20059;-91
2021/05/07 08:20:24;;;;;;;11.07;3.05;;;9.80;99.90;;;;;;4901431;29;20051;-91
2021/05/07 08:22:58;;;;;;;10.18;3.03;;;9.90;99.90;;;;;;4913689;29;20052;-90
2021/05/07 08:26:04;;;;;;;10.93;3.30;;;10.40;99.90;;;;;;4917547;29;20549;-92
2021/05/07 08:28:35;;;;;;;16.65;3.88;;;10.10;99.90;;;;;;4929013;29;20411;-92
2021/05/07 08:31:19;;;;;;;9.60;3.40;;;10.30;99.90;;;;;;4915113;29;20132;-92
2021/05/07 08:34:00;;;;;;;;;;;;;;;;;;;;;
2021/05/07 08:36:47;;;;;;;16.73;4.63;;;10.50;99.90;;;;;;4917001;29;20059;-91
2021/05/07 08:39:33;;;;;;;11.88;3.55;;;10.70;99.90;;;;;;4886247;29;20541;-91
2021/05/07 08:42:09;;;;;;;16.53;4.03;;;10.80;99.90;;;;;;4941754;29;20054;-91
2021/05/07 08:44:54;;;;;;;7.88;2.53;;;10.90;99.90;;;;;;4923161;29;20059;-93
2021/05/07 08:47:42;;;;;;;12.20;2.90;;;11.30;99.90;;;;;;4928061;29;20105;-91
2021/05/07 08:50:15;;;;;;;12.48;3.35;;;11.20;99.90;;;;;;4925713;29;20055;-92
2021/05/07 08:53:04;;;;;;;13.57;3.85;;;11.30;99.90;;;;;;4913994;29;20048;-91
2021/05/07 08:55:34;;;;;;;8.40;2.92;;;11.30;99.90;;;;;;4914199;29;20055;-92
2021/05/07 08:58:13;;;;;;;16.20;2.95;;;11.30;99.90;;;;;;4897534;29;20137;-91
2021/05/07 09:00:42;;;;;;;4.57;2.22;;;11.40;99.70;;;;;;4914855;29;20044;-92
2021/05/07 09:03:16;;;;;;;13.88;3.97;;;11.30;99.90;;;;;;4930507;29;20052;-92
2021/05/07 09:05:52;;;;;;;7.78;2.40;;;11.30;98.70;;;;;;4914562;29;20051;-93
2021/05/07 09:08:52;;;;;;;4.60;3.15;;;11.40;98.10;;;;;;4911636;29;20048;-92
2021/05/07 09:11:47;;;;;;;6.40;3.42;;;11.40;96.10;;;;;;4912415;29;20295;-92
2021/05/07 09:14:26;;;;;;;9.25;2.42;;;11.40;94.60;;;;;;4895818;29;20063;-93
2021/05/07 09:18:18;;;;;;;;;;;;;;;;;;;;;
2021/05/07 09:21:39;;;;;;;12.23;3.03;;;11.50;92.80;;;;;;4923399;29;20064;-93
2021/05/07 09:24:40;;;;;;;9.15;3.88;;;12.40;93.30;;;;;;4912972;29;20056;-93
2021/05/07 09:27:22;;;;;;;9.30;2.67;;;11.40;93.70;;;;;;4920273;29;20063;-93
2021/05/07 09:30:20;;;;;;;18.25;2.67;;;11.50;93.20;;;;;;4889449;29;20054;-93
2021/05/07 09:33:04;;;;;;;10.52;2.83;;;11.50;92.20;;;;;;4929245;29;20040;-92
2021/05/07 09:39:30;;;;;;;11.10;4.10;;;11.60;90.20;;;;;;4947955;29;19922;-91
2021/05/07 09:43:27;;;;;;;7.68;1.90;;;11.90;90.30;;;;;;5119884;23;20055;-94
2021/05/07 09:51:15;;;;;;;9.73;3.30;;;11.70;83.50;;;;;;4957798;29;20196;-92
2021/05/07 09:54:22;;;;;;;8.00;3.15;;;11.80;83.30;;;;;;4929659;29;20049;-90
2021/05/07 09:57:31;;;;;;;9.77;2.50;;;11.80;79.00;;;;;;4945487;29;20070;-93
2021/05/07 10:00:38;;;;;;;8.75;2.15;;;11.00;76.90;;;;;;4936431;29;20066;-92
2021/05/07 10:03:37;;;;;;;7.95;2.10;;;12.90;78.00;;;;;;4964040;29;20035;-92
2021/05/07 10:06:17;;;;;;;5.57;2.13;;;12.10;72.60;;;;;;4939475;29;20055;-91
2021/05/07 10:10:01;;;;;;;6.25;2.17;;;12.30;70.20;;;;;;4959666;23;20047;-93
2021/05/07 10:13:01;;;;;;;8.82;1.83;;;12.60;68.40;;;;;;4943351;28;20039;-92
2021/05/07 10:16:55;;;;;;;9.60;1.85;;;12.50;67.90;;;;;;5034412;23;20054;-93
2021/05/07 10:20:26;;;;;;;6.93;2.00;;;12.60;65.80;;;;;;4923061;29;20040;-93
2021/05/07 10:24:49;;;;;;;5.30;2.50;;;12.70;60.70;;;;;;4876638;29;20048;-92
2021/05/07 10:28:46;;;;;;;6.18;2.20;;;12.90;58.20;;;;;;4855948;29;20053;-94
2021/05/07 10:32:58;;;;;;;5.90;2.17;;;12.90;60.70;;;;;;4872869;29;20029;-94
2021/05/07 10:37:07;;;;;;;5.38;2.33;;;13.00;60.60;;;;;;4939743;23;20604;-93
2021/05/07 10:47:36;;;;;;;5.43;2.03;;;13.10;59.30;;;;;;4952594;29;20052;-88
2021/05/07 10:50:15;;;;;;;9.40;3.05;;;13.10;57.70;;;;;;4963104;29;20066;-92
2021/05/07 10:52:57;;;;;;;6.35;1.67;;;13.30;60.10;;;;;;4959361;29;20062;-93
2021/05/07 10:56:33;;;;;;;8.85;2.20;;;13.40;59.70;;;;;;4975806;28;20061;-93
2021/05/07 10:59:19;;;;;;;6.93;2.08;;;12.60;58.10;;;;;;4968102;28;20052;-94
2021/05/07 11:02:25;;;;;;;8.80;2.95;;;13.70;59.10;;;;;;4964086;28;20121;-94
2021/05/07 11:05:31;;;;;;;5.57;2.05;;;15.10;59.60;;;;;;4958721;29;20039;-94
2021/05/07 11:08:08;;;;;;;8.95;2.45;;;14.10;59.00;;;;;;4940352;29;20059;-93
2021/05/07 11:10:42;;;;;;;5.82;1.95;;;16.10;59.60;;;;;;4932070;29;20047;-92
2021/05/07 11:13:20;;;;;;;8.35;2.80;;;14.30;57.80;;;;;;4959408;29;20067;-93
2021/05/07 11:16:00;;;;;;;5.88;2.22;;;14.40;58.90;;;;;;4955768;29;20050;-94
2021/05/07 11:18:39;;;;;;;9.90;2.35;;;14.40;57.70;;;;;;4941609;29;20051;-92
2021/05/07 11:21:54;;;;;;;6.88;2.25;;;14.50;58.20;;;;;;4938638;29;20047;-93
2021/05/07 11:24:51;;;;;;;5.93;2.58;;;14.50;57.40;;;;;;4939752;29;20071;-94
2021/05/07 11:27:32;;;;;;;7.95;2.25;;;14.60;58.50;;;;;;4961839;29;20063;-95
2021/05/07 11:31:04;;;;;;;4.47;2.08;;;14.50;58.50;;;;;;4949440;29;20706;-95
2021/05/07 11:34:02;;;;;;;14.95;3.35;;;14.40;56.90;;;;;;4938670;29;20048;-92
2021/05/07 11:37:13;;;;;;;6.32;2.90;;;14.40;58.10;;;;;;4957328;29;20070;-92
2021/05/07 11:39:42;;;;;;;8.82;2.28;;;14.40;59.00;;;;;;4936048;29;20055;-93
2021/05/07 11:42:25;;;;;;;6.43;2.15;;;15.70;58.80;;;;;;4941356;29;20062;-94
2021/05/07 11:44:58;;;;;;;13.48;2.60;;;14.70;57.50;;;;;;4924558;29;20054;-94
2021/05/07 11:47:33;;;;;;;12.77;2.65;;;14.90;57.60;;;;;;4955494;29;20060;-94
2021/05/07 11:51:06;;;;;;;16.20;2.97;;;15.10;57.10;;;;;;4939186;29;20059;-96
2021/05/07 11:53:56;;;;;;;10.40;3.08;;;15.30;56.00;;;;;;4950349;29;20050;-95
2021/05/07 11:56:37;;;;;;;9.90;1.85;;;15.10;55.00;;;;;;4963611;29;20054;-94
2021/05/07 11:59:10;;;;;;;10.80;1.67;;;15.10;54.90;;;;;;4953643;29;20047;-94
2021/05/07 12:02:26;;;;;;;9.18;2.65;;;15.20;55.80;;;;;;4948441;29;20070;-94
2021/05/07 12:05:30;;;;;;;8.10;1.92;;;15.20;53.70;;;;;;4935371;29;20047;-94
2021/05/07 12:08:40;;;;;;;6.00;2.25;;;15.10;53.60;;;;;;4929115;29;20137;-86
2021/05/07 12:11:11;;;;;;;9.30;2.38;;;14.10;53.40;;;;;;4954121;29;20062;-85
2021/05/07 12:13:40;;;;;;;8.52;2.58;;;14.90;53.90;;;;;;4958999;29;20054;-86
2021/05/07 12:16:12;;;;;;;6.82;2.65;;;14.90;54.30;;;;;;4953128;29;20058;-87
2021/05/07 12:18:49;;;;;;;10.75;2.05;;;14.60;53.40;;;;;;4948422;29;20074;-84
2021/05/07 12:21:19;;;;;;;9.85;2.65;;;14.70;51.80;;;;;;4951467;29;20092;-84
2021/05/07 12:23:53;;;;;;;10.15;2.10;;;14.50;52.80;;;;;;4950057;28;20063;-83
2021/05/07 12:26:21;;;;;;;9.73;2.67;;;14.30;52.80;;;;;;4963516;29;20055;-85
2021/05/07 12:28:54;;;;;;;12.95;4.47;;;14.40;52.90;;;;;;4965601;29;20042;-84
2021/05/07 12:31:36;;;;;;;8.52;3.65;;;14.50;52.70;;;;;;4954293;29;20039;-84
2021/05/07 12:34:23;;;;;;;4.93;1.50;;;14.70;52.90;;;;;;4959482;28;20062;-84
2021/05/07 12:37:04;;;;;;;3.50;1.80;;;15.10;52.80;;;;;;4963757;29;20051;-84
2021/05/07 12:39:32;;;;;;;9.02;3.05;;;15.30;52.20;;;;;;4960164;29;20055;-84
2021/05/07 12:42:02;;;;;;;9.88;3.60;;;15.40;52.20;;;;;;4941394;29;20066;-84
2021/05/07 12:44:30;;;;;;;12.85;4.85;;;15.40;52.30;;;;;;4966004;29;20542;-83
2021/05/07 12:46:58;;;;;;;8.13;2.78;;;15.30;51.50;;;;;;4949581;29;20052;-84
2021/05/07 12:49:29;;;;;;;9.10;2.60;;;15.20;51.50;;;;;;4941253;29;20063;-84
2021/05/07 12:52:00;;;;;;;7.00;3.15;;;15.00;51.80;;;;;;4950594;29;20058;-85
2021/05/07 12:54:30;;;;;;;20.80;3.78;;;15.00;52.50;;;;;;4955318;29;20055;-84
2021/05/07 12:57:05;;;;;;;7.07;2.20;;;14.90;52.50;;;;;;4952487;29;20052;-84
2021/05/07 12:59:34;;;;;;;4.72;1.83;;;14.90;52.70;;;;;;4958920;28;20047;-84
2021/05/07 13:02:03;;;;;;;8.90;2.40;;;14.90;52.70;;;;;;4948737;29;20430;-85
2021/05/07 13:04:34;;;;;;;11.07;2.50;;;14.90;52.70;;;;;;4960104;29;20059;-85
2021/05/07 13:07:08;;;;;;;8.63;3.70;;;14.80;52.90;;;;;;4967119;29;20047;-85
2021/05/07 13:09:36;;;;;;;5.85;2.30;;;14.80;52.50;;;;;;4950987;29;20043;-94
2021/05/07 13:12:23;;;;;;;10.73;2.20;;;14.80;52.90;;;;;;4962050;29;20043;-93
2021/05/07 13:15:22;;;;;;;10.88;2.35;;;14.90;52.70;;;;;;4953567;29;20055;-92
2021/05/07 13:18:10;;;;;;;10.32;3.60;;;15.10;53.40;;;;;;4942890;29;20035;-94
2021/05/07 13:20:46;;;;;;;8.05;2.60;;;15.30;53.30;;;;;;4968734;29;20306;-93
2021/05/07 13:23:39;;;;;;;9.30;2.33;;;15.00;52.90;;;;;;4959879;29;20039;-93
2021/05/07 13:26:33;;;;;;;10.20;2.20;;;15.50;52.50;;;;;;4946966;29;20031;-92
2021/05/07 13:29:25;;;;;;;7.80;2.40;;;15.50;52.70;;;;;;4945117;29;20043;-95
2021/05/07 13:32:30;;;;;;;8.10;3.08;;;15.50;51.90;;;;;;4960819;28;20301;-93
2021/05/07 13:35:22;;;;;;;10.48;3.90;;;15.50;50.90;;;;;;4942059;28;20172;-94
2021/05/07 13:38:12;;;;;;;9.07;2.15;;;15.50;52.20;;;;;;4944731;23;20056;-92
2021/05/07 13:40:52;;;;;;;10.07;2.80;;;15.10;51.80;;;;;;4942454;29;20047;-93
2021/05/07 13:44:34;;;;;;;7.18;1.70;;;15.50;52.50;;;;;;5026937;23;20064;-93
2021/05/07 13:47:34;;;;;;;8.82;3.22;;;15.60;51.10;;;;;;4957700;29;20050;-92
2021/05/07 13:50:13;;;;;;;9.27;1.90;;;15.50;52.00;;;;;;4935808;29;20062;-92
2021/05/07 13:53:24;;;;;;;8.98;2.78;;;15.50;52.10;;;;;;4917237;29;20057;-87
2021/05/07 13:55:55;;;;;;;8.55;2.83;;;15.30;51.90;;;;;;4879589;29;20055;-87
2021/05/07 13:58:24;;;;;;;14.55;4.25;;;15.40;51.10;;;;;;4889082;29;20140;-88
2021/05/07 14:00:55;;;;;;;13.85;2.50;;;15.40;50.70;;;;;;4900157;29;20056;-87
2021/05/07 14:03:35;;;;;;;5.18;2.28;;;15.30;50.60;;;;;;4903460;29;20049;-88
2021/05/07 14:06:11;;;;;;;4.30;2.50;;;15.20;51.00;;;;;;4911808;29;20052;-87
2021/05/07 14:08:41;;;;;;;6.35;2.38;;;15.10;51.20;;;;;;4892523;29;20616;-92
2021/05/07 14:12:01;;;;;;;6.43;2.20;;;15.00;51.50;;;;;;4902254;29;20053;-86
2021/05/07 14:14:31;;;;;;;6.13;2.08;;;15.00;51.60;;;;;;4877648;29;20063;-89
2021/05/07 14:17:18;;;;;;;;;;;15.10;52.20;;;;;;4881114;29;20049;-92
2021/05/07 14:20:24;;;;;;;8.65;2.72;;;15.20;51.90;;;;;;4883381;29;19976;-85
2021/05/07 14:22:59;;;;;;;5.85;1.88;;;15.20;51.80;;;;;;4879576;29;20505;-88
2021/05/07 14:25:31;;;;;;;12.75;2.55;;;15.40;52.60;;;;;;4874527;29;20072;-88
2021/05/07 14:28:10;;;;;;;12.05;2.40;;;15.50;53.00;;;;;;4892681;29;20061;-92
2021/05/07 14:31:15;;;;;;;10.93;2.80;;;15.70;52.40;;;;;;4864429;29;20156;-85
2021/05/07 14:33:46;;;;;;;8.32;3.15;;;16.10;52.00;;;;;;4890036;29;20069;-88
2021/05/07 14:36:17;;;;;;;7.68;2.70;;;16.80;51.90;;;;;;4883760;29;20044;-87
2021/05/07 14:38:47;;;;;;;8.00;2.08;;;17.50;51.60;;;;;;4872286;29;20052;-86
2021/05/07 14:41:29;;;;;;;5.60;2.22;;;18.30;49.90;;;;;;4866025;29;20041;-87
2021/05/07 14:43:59;;;;;;;5.80;2.03;;;18.70;48.70;;;;;;4898733;29;20055;-86
2021/05/07 14:46:28;;;;;;;5.85;1.83;;;19.00;48.10;;;;;;4910914;29;20048;-86
2021/05/07 14:48:56;;;;;;;7.95;1.83;;;19.30;47.10;;;;;;4940756;29;20063;-87
2021/05/07 14:51:24;;;;;;;7.95;2.08;;;19.20;46.90;;;;;;4925330;29;20062;-89
2021/05/07 14:53:53;;;;;;;5.20;2.10;;;19.00;47.10;;;;;;4912127;29;20056;-86
2021/05/07 14:56:20;;;;;;;8.40;2.28;;;19.20;46.10;;;;;;4937712;29;20825;-88
2021/05/07 14:58:50;;;;;;;7.72;1.98;;;19.00;46.60;;;;;;4921364;29;20063;-86
2021/05/07 15:01:21;;;;;;;7.35;2.22;;;18.70;47.20;;;;;;4925511;29;20047;-88
2021/05/07 15:04:05;;;;;;;7.25;2.15;;;18.20;45.90;;;;;;4909659;29;20048;-86
2021/05/07 15:06:42;;;;;;;8.15;2.50;;;17.60;46.90;;;;;;4933818;29;20040;-87
2021/05/07 15:09:14;;;;;;;3.83;1.30;;;18.10;48.80;;;;;;4894304;29;20093;-85
2021/05/07 15:11:44;;;;;;;3.40;1.50;;;16.80;48.10;;;;;;4931153;29;20056;-85
2021/05/07 15:14:13;;;;;;;9.43;2.22;;;16.50;48.90;;;;;;4905112;29;20071;-86